Time;durP1;ratioP1;P1;durP2;ratioP2;P2;SDS_P1;SDS_P2;PMS_P1;PMS_P2;Temp;Humidity;BMP_temperature;BMP_pressure;BME280_temperature;BME280_humidity;BME280_pressure;Samples;Min_cycle;Max_cycle;Signal;HPM_P1;HPM_P2
2021/05/12 00:00:19;;;;;;;3.85;1.70;;;;;;;17.62;48.41;95754.32;1471697;93;21321;-82
2021/05/12 00:02:47;;;;;;;3.55;1.90;;;;;;;17.48;48.78;95749.91;1471602;92;21094;-82
2021/05/12 00:05:15;;;;;;;3.10;1.87;;;;;;;17.38;49.06;95753.69;1473826;93;20966;-82
2021/05/12 00:07:40;;;;;;;3.08;1.72;;;;;;;17.27;49.81;95750.64;1471497;94;20988;-82
2021/05/12 00:10:08;;;;;;;3.58;2.00;;;;;;;17.14;50.22;95754.37;1454444;94;21030;-82
2021/05/12 00:12:36;;;;;;;2.87;1.82;;;;;;;17.04;50.55;95767.31;1472084;94;21023;-82
2021/05/12 00:15:08;;;;;;;4.37;1.90;;;;;;;16.92;50.45;95762.64;1472251;94;20936;-81
2021/05/12 00:17:35;;;;;;;4.25;2.00;;;;;;;16.83;50.71;95756.20;1481581;93;20975;-82
2021/05/12 00:20:02;;;;;;;3.27;1.85;;;;;;;16.75;51.02;95754.73;1450897;94;20984;-82
2021/05/12 00:25:12;;;;;;;2.55;1.80;;;;;;;16.64;51.64;95749.81;1478152;92;21059;-82
2021/05/12 00:27:39;;;;;;;2.75;1.60;;;;;;;16.58;52.21;95751.24;1476856;92;21107;-82
2021/05/12 00:30:12;;;;;;;2.50;1.60;;;;;;;16.51;52.00;95757.95;1481873;92;20983;-82
2021/05/12 00:32:37;;;;;;;1.67;1.47;;;;;;;16.45;52.47;95747.89;1486718;92;21364;-81
2021/05/12 00:35:04;;;;;;;2.80;2.12;;;;;;;16.39;52.53;95751.42;1472228;93;20983;-82
2021/05/12 00:37:30;;;;;;;2.45;1.77;;;;;;;16.34;52.40;95755.78;1472516;93;20967;-82
2021/05/12 00:39:56;;;;;;;2.80;1.95;;;;;;;16.33;52.47;95751.06;1486926;92;21042;-81
2021/05/12 00:42:21;;;;;;;3.22;2.08;;;;;;;16.32;52.70;95748.16;1480603;92;21285;-81
2021/05/12 00:44:48;;;;;;;3.45;1.98;;;;;;;16.31;52.57;95751.02;1465859;93;21075;-81
2021/05/12 00:47:14;;;;;;;3.90;1.70;;;;;;;16.30;52.99;95746.28;1470814;93;20995;-82
2021/05/12 00:49:39;;;;;;;2.10;1.90;;;;;;;16.29;52.88;95748.63;1472972;92;21007;-82
2021/05/12 00:52:05;;;;;;;2.33;1.90;;;;;;;16.27;53.14;95740.69;1487886;92;21039;-81
2021/05/12 00:54:32;;;;;;;2.55;1.98;;;;;;;16.24;53.29;95743.27;1471767;94;20944;-82
2021/05/12 00:56:58;;;;;;;3.47;2.10;;;;;;;16.18;53.30;95741.06;1472081;93;21112;-82
2021/05/12 00:59:31;;;;;;;2.45;1.72;;;;;;;16.16;53.29;95733.16;1474400;93;21237;-82
2021/05/12 01:01:51;;;;;;;2.27;2.05;;;;;;;16.17;52.96;95727.69;1470481;94;20964;-82
2021/05/12 01:04:17;;;;;;;2.80;1.77;;;;;;;16.22;53.22;95732.22;1482686;93;20959;-82
2021/05/12 01:06:42;;;;;;;2.83;1.75;;;;;;;16.19;53.27;95729.55;1466721;94;20983;-82
2021/05/12 01:09:09;;;;;;;3.77;1.85;;;;;;;16.18;53.52;95726.65;1443060;95;21068;-82
2021/05/12 01:11:36;;;;;;;3.58;1.82;;;;;;;16.18;52.79;95717.48;1459805;94;21226;-82
2021/05/12 01:14:02;;;;;;;2.37;1.95;;;;;;;16.29;52.91;95722.41;1478782;93;20979;-82
2021/05/12 01:16:28;;;;;;;3.35;2.02;;;;;;;16.40;52.95;95712.89;1472431;94;21043;-82
2021/05/12 01:18:53;;;;;;;2.17;1.82;;;;;;;16.46;52.77;95708.84;1460957;94;21028;-81
2021/05/12 01:21:19;;;;;;;2.80;1.98;;;;;;;16.56;52.23;95704.79;1475382;93;21028;-81
2021/05/12 01:23:48;;;;;;;2.98;1.62;;;;;;;16.72;51.67;95696.98;1476009;93;21047;-82
2021/05/12 01:26:17;;;;;;;3.20;1.70;;;;;;;16.98;51.24;95699.52;1483541;92;21036;-82
2021/05/12 01:28:45;;;;;;;3.20;1.92;;;;;;;17.17;51.21;95687.47;1472374;93;21066;-82
2021/05/12 01:31:21;;;;;;;3.22;1.72;;;;;;;17.12;50.98;95665.88;1471807;94;21039;-82
2021/05/12 01:33:50;;;;;;;4.62;2.00;;;;;;;17.36;50.14;95681.71;1486182;92;20999;-83
2021/05/12 01:36:16;;;;;;;3.25;1.70;;;;;;;17.50;49.86;95676.92;1476606;92;21094;-83
2021/05/12 01:38:44;;;;;;;2.92;1.60;;;;;;;17.62;49.27;95679.45;1480968;92;21064;-83
2021/05/12 01:41:10;;;;;;;1.72;1.52;;;;;;;17.80;48.41;95669.99;1471456;93;21035;-83
2021/05/12 01:43:36;;;;;;;3.92;2.12;;;;;;;18.06;48.45;95665.02;1478146;92;21308;-84
2021/05/12 01:46:02;;;;;;;5.50;1.90;;;;;;;18.19;47.70;95662.02;1492383;92;21039;-84
2021/05/12 01:48:28;;;;;;;3.42;1.70;;;;;;;18.34;47.35;95662.18;1447285;94;21032;-83
2021/05/12 01:50:54;;;;;;;2.80;1.70;;;;;;;18.47;47.08;95655.73;1441786;95;20987;-82
2021/05/12 01:53:19;;;;;;;2.58;1.62;;;;;;;18.58;46.41;95652.96;1433221;95;21206;-83
2021/05/12 01:55:48;;;;;;;2.17;1.70;;;;;;;18.67;46.65;95657.27;1433427;96;21094;-84
2021/05/12 01:58:15;;;;;;;2.92;1.32;;;;;;;18.69;46.55;95657.80;1443870;95;21003;-83
2021/05/12 02:00:44;;;;;;;2.87;1.70;;;;;;;18.68;46.27;95648.33;1435081;95;21067;-83
2021/05/12 02:03:10;;;;;;;3.20;1.70;;;;;;;18.77;45.76;95647.36;1433077;96;21062;-83
2021/05/12 02:05:38;;;;;;;2.02;1.42;;;;;;;18.87;45.81;95642.98;1445707;96;21011;-83
2021/05/12 02:08:06;;;;;;;2.70;1.37;;;;;;;18.91;45.79;95643.27;1485271;92;21079;-82
2021/05/12 02:10:32;;;;;;;4.08;1.60;;;;;;;18.94;45.71;95644.08;1485823;92;21007;-83
2021/05/12 02:12:58;;;;;;;3.95;1.60;;;;;;;18.97;45.08;95651.46;1471721;92;20984;-83
2021/05/12 02:15:24;;;;;;;1.82;1.70;;;;;;;19.02;45.19;95640.17;1484122;92;21229;-83
2021/05/12 02:17:50;;;;;;;2.22;1.50;;;;;;;19.07;44.86;95646.80;1453546;96;21040;-83
2021/05/12 02:20:23;;;;;;;2.83;1.57;;;;;;;19.12;44.73;95641.04;1434792;96;21338;-83
2021/05/12 02:22:49;;;;;;;8.25;1.60;;;;;;;19.14;44.71;95646.84;1429339;96;21067;-83
2021/05/12 02:25:15;;;;;;;4.05;1.50;;;;;;;19.21;44.63;95637.42;1440439;95;21126;-83
2021/05/12 02:27:41;;;;;;;2.08;1.85;;;;;;;19.23;44.50;95639.80;1477059;92;21007;-83
2021/05/12 02:30:08;;;;;;;1.82;1.42;;;;;;;19.25;44.49;95641.13;1481530;92;20960;-83
2021/05/12 02:32:35;;;;;;;2.40;1.50;;;;;;;19.29;44.75;95629.56;1485886;92;20974;-83
2021/05/12 02:35:01;;;;;;;2.92;1.52;;;;;;;19.27;44.45;95632.97;1471017;94;21059;-82
2021/05/12 02:37:27;;;;;;;4.45;1.80;;;;;;;19.31;44.20;95630.09;1470689;94;21213;-82
2021/05/12 02:39:53;;;;;;;1.98;1.60;;;;;;;19.40;43.45;95627.27;1486904;92;21019;-82
2021/05/12 02:42:19;;;;;;;2.58;1.50;;;;;;;19.46;43.81;95622.28;1471484;93;20979;-82
2021/05/12 02:44:45;;;;;;;3.17;1.60;;;;;;;19.45;43.92;95627.28;1475155;93;21126;-82
2021/05/12 02:47:11;;;;;;;3.05;1.72;;;;;;;19.40;43.78;95629.38;1475651;93;21014;-82
2021/05/12 02:49:37;;;;;;;2.58;1.60;;;;;;;19.36;44.07;95626.98;1475599;94;20975;-82
2021/05/12 02:52:03;;;;;;;2.40;2.20;;;;;;;19.30;44.24;95622.72;1476783;92;21007;-82
2021/05/12 02:54:29;;;;;;;3.08;1.60;;;;;;;19.23;44.34;95630.59;1475592;94;20986;-81
2021/05/12 02:56:55;;;;;;;2.10;1.40;;;;;;;19.23;43.95;95622.69;1447944;95;21285;-82
2021/05/12 02:59:21;;;;;;;2.33;1.30;;;;;;;19.30;43.68;95617.98;1433414;95;21012;-82
2021/05/12 03:01:46;;;;;;;2.27;1.30;;;;;;;19.35;44.10;95620.63;1439857;95;21254;-82
2021/05/12 03:04:12;;;;;;;2.45;1.30;;;;;;;19.32;43.91;95621.94;1449229;95;21065;-81
2021/05/12 03:06:38;;;;;;;2.10;1.50;;;;;;;19.27;43.91;95619.28;1450507;95;21003;-81
2021/05/12 03:09:06;;;;;;;1.57;1.35;;;;;;;19.28;44.13;95610.86;1449773;95;20952;-82
2021/05/12 03:11:32;;;;;;;3.95;1.50;;;;;;;19.25;44.16;95613.48;1450377;95;21238;-82
2021/05/12 03:13:58;;;;;;;2.15;1.70;;;;;;;19.23;44.05;95612.15;1437939;96;21059;-82
2021/05/12 03:16:24;;;;;;;3.65;1.67;;;;;;;19.21;44.03;95613.73;1450016;95;21075;-82
2021/05/12 03:18:49;;;;;;;3.58;1.72;;;;;;;19.24;43.67;95619.00;1439428;95;20992;-82
2021/05/12 03:21:15;;;;;;;2.80;1.65;;;;;;;19.28;44.26;95610.86;1433377;95;21041;-82
2021/05/12 03:23:41;;;;;;;2.30;1.50;;;;;;;19.25;44.07;95612.16;1435576;96;21026;-82
2021/05/12 03:26:06;;;;;;;2.65;1.80;;;;;;;19.22;43.99;95615.31;1434058;96;21049;-82
2021/05/12 03:28:32;;;;;;;4.17;1.80;;;;;;;19.19;43.80;95615.80;1450244;95;21326;-81
2021/05/12 03:30:58;;;;;;;1.95;1.40;;;;;;;19.19;44.05;95615.27;1422985;96;21043;-81
2021/05/12 03:33:24;;;;;;;2.85;1.30;;;;;;;19.17;44.25;95601.56;1443250;95;21029;-82
2021/05/12 03:35:50;;;;;;;1.72;1.40;;;;;;;19.11;44.28;95612.34;1458030;95;20929;-82
2021/05/12 03:38:16;;;;;;;1.32;1.12;;;;;;;19.11;44.24;95610.49;1450398;95;21043;-82
2021/05/12 03:40:41;;;;;;;3.75;1.67;;;;;;;19.10;44.72;95610.23;1457111;95;20963;-82
2021/05/12 03:43:07;;;;;;;3.55;1.45;;;;;;;19.07;44.39;95607.31;1434128;95;21127;-82
2021/05/12 03:45:33;;;;;;;4.30;2.27;;;;;;;19.10;44.33;95610.23;1432597;95;21000;-81
2021/05/12 03:47:59;;;;;;;1.65;1.27;;;;;;;19.13;44.27;95606.29;1446079;95;20979;-82
2021/05/12 03:50:27;;;;;;;2.90;1.50;;;;;;;19.13;44.33;95605.77;1447030;95;21039;-82
2021/05/12 03:52:53;;;;;;;1.77;1.30;;;;;;;19.13;43.94;95597.07;1475508;93;20991;-81
2021/05/12 03:55:19;;;;;;;2.92;1.62;;;;;;;19.17;44.02;95605.52;1472381;92;20980;-81
2021/05/12 03:57:45;;;;;;;2.85;1.30;;;;;;;19.23;43.98;95602.94;1473613;93;20995;-81
2021/05/12 04:00:11;;;;;;;2.00;1.57;;;;;;;19.27;44.22;95598.73;1475007;92;20988;-81
2021/05/12 04:02:37;;;;;;;3.87;1.80;;;;;;;19.29;44.23;95603.22;1476229;93;21221;-81
2021/05/12 04:05:04;;;;;;;1.92;1.37;;;;;;;19.25;44.16;95600.31;1482532;93;21004;-81
2021/05/12 04:07:30;;;;;;;2.77;1.90;;;;;;;19.23;44.30;95588.45;1477533;93;21023;-81
2021/05/12 04:09:55;;;;;;;2.58;1.50;;;;;;;19.23;44.08;95596.35;1476394;92;21332;-81
2021/05/12 04:12:21;;;;;;;4.25;1.98;;;;;;;19.23;44.16;95595.03;1482327;92;21016;-81
2021/05/12 04:14:47;;;;;;;2.10;1.70;;;;;;;19.27;43.90;95594.78;1471772;94;21052;-81
2021/05/12 04:17:13;;;;;;;1.77;1.30;;;;;;;19.29;43.92;95598.75;1472234;94;21035;-81
2021/05/12 04:19:38;;;;;;;3.40;1.70;;;;;;;19.30;44.31;95596.37;1471965;94;21012;-82
2021/05/12 04:22:04;;;;;;;3.12;1.50;;;;;;;19.29;44.53;95599.27;1471557;94;21029;-83
2021/05/12 04:24:31;;;;;;;2.52;1.60;;;;;;;19.26;44.08;95593.20;1481232;92;20983;-82
2021/05/12 04:26:56;;;;;;;3.33;1.30;;;;;;;19.28;44.29;95587.15;1478447;92;21074;-83
2021/05/12 04:29:23;;;;;;;4.12;1.82;;;;;;;19.30;44.31;95593.75;1487242;92;21012;-83
2021/05/12 04:31:49;;;;;;;2.40;1.60;;;;;;;19.39;43.97;95592.75;1483010;92;21008;-83
2021/05/12 04:34:15;;;;;;;2.87;1.60;;;;;;;19.42;44.08;95589.08;1490066;92;20994;-83
2021/05/12 04:36:41;;;;;;;3.22;1.67;;;;;;;19.47;43.78;95586.45;1472565;93;20932;-83
2021/05/12 04:39:07;;;;;;;2.92;1.67;;;;;;;19.52;43.81;95594.89;1471799;94;20936;-83
2021/05/12 04:41:33;;;;;;;2.70;1.67;;;;;;;19.54;43.54;95592.86;1491806;92;20971;-83
2021/05/12 04:43:59;;;;;;;2.35;1.50;;;;;;;19.61;43.51;95593.40;1485822;92;21066;-83
2021/05/12 04:46:25;;;;;;;3.62;1.50;;;;;;;19.65;43.59;95586.56;1465947;93;20996;-83
2021/05/12 04:48:53;;;;;;;3.10;1.40;;;;;;;19.67;43.87;95590.25;1477874;93;21226;-83
2021/05/12 04:51:21;;;;;;;2.72;1.52;;;;;;;19.69;43.26;95588.97;1468051;93;21059;-83
2021/05/12 04:53:47;;;;;;;2.02;1.47;;;;;;;19.75;43.20;95588.45;1478063;93;20984;-83
2021/05/12 04:56:13;;;;;;;1.95;1.40;;;;;;;19.77;43.90;95592.94;1462677;94;20984;-83
2021/05/12 04:58:39;;;;;;;2.12;1.50;;;;;;;19.79;43.14;95586.34;1461413;94;21274;-83
2021/05/12 05:01:04;;;;;;;3.15;1.57;;;;;;;19.84;42.98;95585.56;1456119;93;21080;-83
2021/05/12 05:03:30;;;;;;;4.17;1.45;;;;;;;19.89;43.23;95584.28;1461725;94;21047;-83
2021/05/12 05:05:57;;;;;;;2.22;1.50;;;;;;;19.93;43.71;95589.30;1470902;94;20996;-83
2021/05/12 05:08:25;;;;;;;3.33;1.60;;;;;;;19.92;43.49;95580.33;1475939;93;21036;-82
2021/05/12 05:10:51;;;;;;;2.10;1.52;;;;;;;19.89;43.38;95583.48;1444100;95;20976;-83
2021/05/12 05:13:17;;;;;;;2.42;1.37;;;;;;;19.93;43.37;95585.34;1461464;94;20988;-83
2021/05/12 05:15:45;;;;;;;2.65;1.40;;;;;;;19.96;43.24;95578.75;1461439;94;20991;-83
2021/05/12 05:18:10;;;;;;;1.67;1.40;;;;;;;20.01;43.14;95586.66;1471189;94;21018;-82
2021/05/12 05:20:36;;;;;;;2.30;1.35;;;;;;;20.06;43.13;95591.44;1471299;94;21009;-83
2021/05/12 05:23:05;;;;;;;2.55;1.30;;;;;;;20.13;43.19;95597.78;1461810;94;21014;-83
2021/05/12 05:25:29;;;;;;;4.45;1.60;;;;;;;20.15;43.61;95593.03;1474625;93;21051;-83
2021/05/12 05:27:55;;;;;;;3.33;1.60;;;;;;;20.17;43.26;95603.31;1464350;93;20960;-83
2021/05/12 05:30:21;;;;;;;3.52;1.40;;;;;;;20.17;43.74;95590.92;1461860;95;20932;-82
2021/05/12 05:32:46;;;;;;;3.17;1.40;;;;;;;20.21;43.81;95590.69;1471214;93;21002;-82
2021/05/12 05:35:13;;;;;;;2.77;1.65;;;;;;;20.24;43.16;95595.96;1461938;93;21000;-83
2021/05/12 05:37:38;;;;;;;3.08;1.60;;;;;;;20.28;42.74;95589.10;1461781;94;21015;-83
2021/05/12 05:40:05;;;;;;;2.17;1.60;;;;;;;20.34;42.88;95595.98;1462509;93;20974;-83
2021/05/12 05:42:31;;;;;;;2.40;1.55;;;;;;;20.38;43.12;95599.68;1463352;93;21406;-83
2021/05/12 05:44:57;;;;;;;1.67;1.30;;;;;;;20.45;42.81;95596.28;1471562;93;21091;-83
2021/05/12 05:47:23;;;;;;;3.95;1.60;;;;;;;20.51;43.08;95592.61;1481088;92;21336;-82
2021/05/12 05:49:49;;;;;;;3.52;1.70;;;;;;;20.56;43.34;95588.64;1484386;92;20924;-83
2021/05/12 05:52:14;;;;;;;2.47;1.32;;;;;;;20.62;42.56;95590.74;1490884;92;20955;-83
2021/05/12 05:54:40;;;;;;;1.72;1.37;;;;;;;20.67;43.17;95594.19;1446606;95;21302;-83
2021/05/12 05:57:13;;;;;;;2.55;1.60;;;;;;;20.70;43.90;95597.36;1437695;95;20964;-83
2021/05/12 05:59:33;;;;;;;4.80;2.02;;;;;;;20.75;42.51;95593.39;1433211;96;21058;-83
2021/05/12 06:02:00;;;;;;;2.25;1.37;;;;;;;20.83;43.22;95600.27;1434166;96;21037;-83
2021/05/12 06:04:26;;;;;;;3.12;1.70;;;;;;;20.88;42.39;95600.25;1434674;95;20973;-83
2021/05/12 06:06:52;;;;;;;2.75;1.47;;;;;;;20.95;41.96;95592.84;1456370;94;21234;-83
2021/05/12 06:09:18;;;;;;;1.98;1.37;;;;;;;21.06;41.77;95588.87;1449654;95;21129;-83
2021/05/12 06:11:44;;;;;;;3.02;1.40;;;;;;;21.16;41.85;95597.58;1449045;95;21295;-83
2021/05/12 06:14:10;;;;;;;2.27;1.82;;;;;;;21.26;41.43;95592.81;1456013;94;21055;-83
2021/05/12 06:16:35;;;;;;;2.33;1.40;;;;;;;21.35;41.19;95591.75;1469875;94;20991;-83
2021/05/12 06:19:01;;;;;;;2.22;1.57;;;;;;;21.46;41.06;95595.93;1468669;94;21019;-83
2021/05/12 06:21:27;;;;;;;2.95;1.70;;;;;;;21.54;40.79;95592.22;1457211;94;21300;-83
2021/05/12 06:23:53;;;;;;;2.50;1.52;;;;;;;21.65;40.64;95592.19;1450007;95;21059;-83
2021/05/12 06:26:20;;;;;;;2.92;1.87;;;;;;;21.76;40.47;95593.18;1450193;95;21226;-83
2021/05/12 06:28:46;;;;;;;2.17;1.72;;;;;;;21.88;40.08;95589.70;1450278;95;21031;-83
2021/05/12 06:31:12;;;;;;;2.65;1.50;;;;;;;22.00;40.17;95592.02;1450563;95;21020;-83
2021/05/12 06:33:39;;;;;;;1.95;1.30;;;;;;;22.07;39.71;95589.89;1450864;94;21059;-83
2021/05/12 06:36:06;;;;;;;2.15;1.65;;;;;;;22.18;39.47;95581.91;1450211;95;21089;-83
2021/05/12 06:38:32;;;;;;;3.50;1.60;;;;;;;22.26;39.11;95591.89;1450235;95;21003;-83
2021/05/12 06:40:58;;;;;;;2.92;1.62;;;;;;;22.30;39.00;95588.98;1464713;94;20988;-83
2021/05/12 06:43:24;;;;;;;3.25;1.60;;;;;;;22.34;38.67;95572.80;1450200;95;21171;-83
2021/05/12 06:45:49;;;;;;;3.80;1.50;;;;;;;22.39;39.01;95586.78;1448228;95;21007;-83
2021/05/12 06:48:15;;;;;;;3.67;1.42;;;;;;;22.48;39.01;95583.03;1433746;95;21033;-83
2021/05/12 06:50:41;;;;;;;2.27;1.55;;;;;;;22.57;38.64;95582.68;1448655;95;21243;-83
2021/05/12 06:53:07;;;;;;;2.20;1.50;;;;;;;22.61;39.13;95569.14;1442902;95;21074;-83
2021/05/12 06:55:33;;;;;;;3.60;1.60;;;;;;;22.68;38.69;95570.16;1453300;94;20993;-84
2021/05/12 06:57:59;;;;;;;3.45;1.40;;;;;;;22.75;38.34;95579.34;1462307;95;20989;-82
2021/05/12 07:00:26;;;;;;;2.52;1.40;;;;;;;22.83;38.73;95573.24;1428872;95;21018;-83
2021/05/12 07:02:51;;;;;;;3.25;1.35;;;;;;;22.88;38.26;95574.52;1438956;95;20937;-83
2021/05/12 07:05:20;;;;;;;2.15;1.42;;;;;;;22.95;37.58;95573.67;1447885;95;21084;-83
2021/05/12 07:07:45;;;;;;;2.15;1.45;;;;;;;22.99;37.61;95572.04;1451723;94;21048;-84
2021/05/12 07:10:11;;;;;;;1.60;1.40;;;;;;;23.04;37.95;95566.14;1462580;94;21241;-83
2021/05/12 07:12:37;;;;;;;4.95;1.60;;;;;;;23.12;37.51;95564.77;1457146;94;21034;-83
2021/05/12 07:15:06;;;;;;;1.60;1.50;;;;;;;23.18;37.58;95562.84;1458426;94;21293;-83
2021/05/12 07:17:32;;;;;;;2.65;1.42;;;;;;;23.25;37.94;95565.93;1458812;94;21072;-83
2021/05/12 07:19:57;;;;;;;2.10;1.40;;;;;;;23.35;37.22;95569.81;1456142;94;21050;-83
2021/05/12 07:22:23;;;;;;;3.65;1.50;;;;;;;23.35;37.22;95569.81;1460012;94;21284;-84
2021/05/12 07:24:49;;;;;;;1.80;1.70;;;;;;;23.41;37.34;95567.88;1460417;94;21274;-83
2021/05/12 07:27:16;;;;;;;3.25;1.45;;;;;;;23.43;36.71;95566.55;1448507;95;21065;-83
2021/05/12 07:29:42;;;;;;;1.85;1.42;;;;;;;23.46;36.74;95567.84;1454790;94;20994;-83
2021/05/12 07:32:08;;;;;;;1.80;1.40;;;;;;;23.49;36.84;95564.09;1459183;94;21083;-83
2021/05/12 07:34:35;;;;;;;3.02;1.35;;;;;;;23.63;36.86;95557.59;1449584;95;21032;-83
2021/05/12 07:37:00;;;;;;;1.87;1.62;;;;;;;23.63;36.86;95557.59;1450081;95;20991;-83
2021/05/12 07:39:29;;;;;;;1.82;1.25;;;;;;;23.71;36.75;95560.92;1449577;94;20977;-83
2021/05/12 07:41:58;;;;;;;2.67;1.35;;;;;;;23.79;36.23;95559.52;1451272;94;21122;-83
2021/05/12 07:44:23;;;;;;;3.67;1.52;;;;;;;23.85;35.92;95553.85;1439025;95;21132;-83
2021/05/12 07:46:50;;;;;;;2.95;1.45;;;;;;;23.92;35.92;95559.61;1440894;96;21099;-83
2021/05/12 07:49:17;;;;;;;2.22;1.67;;;;;;;24.01;35.26;95554.44;1427211;97;21107;-83
2021/05/12 07:51:43;;;;;;;2.77;1.30;;;;;;;24.07;34.88;95553.82;1455318;94;21004;-83
2021/05/12 07:54:08;;;;;;;2.22;1.30;;;;;;;24.12;36.40;95554.55;1457238;94;21023;-83
2021/05/12 07:56:34;;;;;;;2.35;1.55;;;;;;;24.20;35.82;95552.56;1440534;95;20976;-83
2021/05/12 07:59:00;;;;;;;3.85;2.00;;;;;;;24.29;35.83;95543.97;1451301;95;20997;-83
2021/05/12 08:01:36;;;;;;;2.85;1.52;;;;;;;24.39;35.61;95549.92;1454726;94;20975;-83
2021/05/12 08:03:59;;;;;;;2.42;1.50;;;;;;;24.44;34.78;95543.22;1441062;94;20988;-83
2021/05/12 08:06:24;;;;;;;1.67;1.17;;;;;;;24.62;35.33;95533.64;1466629;94;21237;-83
2021/05/12 08:08:50;;;;;;;1.92;1.50;;;;;;;24.62;35.33;95533.64;1472198;92;21003;-83
2021/05/12 08:11:16;;;;;;;2.22;1.45;;;;;;;24.74;35.09;95531.32;1470561;92;20960;-83
2021/05/12 08:13:42;;;;;;;2.98;1.62;;;;;;;24.83;34.76;95534.08;1463199;94;20964;-83
2021/05/12 08:16:07;;;;;;;6.92;6.33;;;;;;;24.92;34.52;95536.32;1454606;94;21261;-83
2021/05/12 08:18:33;;;;;;;39.50;35.78;;;;;;;25.05;33.99;95527.59;1468788;94;20968;-83
2021/05/12 08:21:00;;;;;;;4.70;4.30;;;;;;;25.21;33.76;95529.97;1460682;94;21361;-83
2021/05/12 08:23:26;;;;;;;2.70;2.05;;;;;;;25.37;34.76;95527.26;1448690;95;21066;-83
2021/05/12 08:25:51;;;;;;;3.33;1.35;;;;;;;25.54;33.51;95526.11;1435456;96;21019;-83
2021/05/12 08:28:18;;;;;;;3.37;1.67;;;;;;;25.66;34.12;95523.74;1455819;94;21595;-83
2021/05/12 08:30:47;;;;;;;4.58;2.30;;;;;;;25.76;34.25;95510.81;1455801;94;20991;-83
2021/05/12 08:33:14;;;;;;;2.60;2.12;;;;;;;25.92;34.59;95512.59;1478854;92;21019;-83
2021/05/12 08:35:44;;;;;;;3.27;2.42;;;;;;;26.03;35.06;95511.27;1473075;93;21046;-83
2021/05/12 08:38:15;;;;;;;4.03;2.25;;;;;;;26.12;34.51;95511.34;1464070;92;21055;-84
2021/05/12 08:40:45;;;;;;;2.65;1.92;;;;;;;26.17;35.08;95514.67;1463146;92;21003;-83
2021/05/12 08:43:11;;;;;;;2.77;2.22;;;;;;;26.20;34.31;95507.44;1489328;92;20972;-83
2021/05/12 08:45:38;;;;;;;3.65;2.12;;;;;;;26.19;34.43;95507.17;1490973;92;20993;-83
2021/05/12 08:48:10;;;;;;;2.87;1.75;;;;;;;26.24;34.85;95506.28;1491091;92;20968;-83
2021/05/12 08:50:33;;;;;;;4.12;2.35;;;;;;;26.27;34.38;95502.47;1473082;92;21003;-84
2021/05/12 08:52:59;;;;;;;2.67;1.70;;;;;;;26.22;35.02;95507.92;1463863;94;20976;-83
2021/05/12 08:55:25;;;;;;;3.90;2.02;;;;;;;26.21;34.34;95502.90;1470156;94;21035;-83
2021/05/12 08:57:51;;;;;;;2.35;1.90;;;;;;;26.22;33.95;95501.81;1480793;92;20971;-83
2021/05/12 09:00:17;;;;;;;2.45;1.90;;;;;;;26.27;33.24;95497.69;1460590;92;21278;-83
2021/05/12 09:02:43;;;;;;;3.05;1.87;;;;;;;26.27;33.78;95497.69;1463681;92;20949;-83
2021/05/12 09:05:11;;;;;;;3.77;2.00;;;;;;;26.38;34.13;95487.08;1472351;93;21011;-83
2021/05/12 09:07:37;;;;;;;3.55;2.35;;;;;;;26.44;33.41;95490.39;1464106;94;21106;-83
2021/05/12 09:10:04;;;;;;;4.58;2.08;;;;;;;26.48;33.93;95482.81;1450275;95;21007;-83
2021/05/12 09:12:55;;;;;;;2.72;1.90;;;;;;;26.50;32.91;95482.50;1466164;94;21026;-83
2021/05/12 09:15:23;;;;;;;3.30;2.15;;;;;;;26.56;33.56;95475.98;1463170;94;21035;-83
2021/05/12 09:17:52;;;;;;;3.52;1.82;;;;;;;26.61;33.05;95479.84;1467520;94;20979;-83
2021/05/12 09:20:27;;;;;;;2.83;1.90;;;;;;;26.57;32.08;95474.34;1456182;94;21007;-83
2021/05/12 09:23:07;;;;;;;3.17;2.02;;;;;;;26.52;33.08;95470.48;1481261;92;20940;-84
2021/05/12 09:25:35;;;;;;;3.15;1.90;;;;;;;26.67;33.45;95470.61;1475840;92;21098;-84
2021/05/12 09:28:17;;;;;;;2.83;1.70;;;;;;;26.79;32.97;95473.50;1474003;92;21234;-84
2021/05/12 09:30:50;;;;;;;2.33;2.08;;;;;;;26.82;31.49;95464.89;1481675;92;21129;-83
2021/05/12 09:33:33;;;;;;;6.53;2.30;;;;;;;26.88;33.51;95462.89;1469463;93;21094;-83
2021/05/12 09:35:59;;;;;;;3.52;2.10;;;;;;;26.88;33.51;95462.89;1455749;94;21098;-84
2021/05/12 09:38:30;;;;;;;4.72;2.02;;;;;;;26.99;31.79;95458.84;1479767;94;20963;-84
2021/05/12 09:41:12;;;;;;;3.33;1.87;;;;;;;26.99;32.01;95458.84;1490781;92;20995;-83
2021/05/12 09:43:49;;;;;;;4.83;1.90;;;;;;;26.96;32.35;95453.34;1480601;92;21305;-84
2021/05/12 09:46:34;;;;;;;3.55;2.25;;;;;;;26.95;33.43;95451.23;1491192;92;20984;-84
2021/05/12 09:49:07;;;;;;;4.05;1.90;;;;;;;27.05;33.37;95453.66;1491626;92;20991;-84
2021/05/12 09:51:37;;;;;;;2.67;2.15;;;;;;;27.18;33.09;95463.98;1489092;92;20924;-84
2021/05/12 09:54:20;;;;;;;3.87;2.30;;;;;;;27.44;32.96;95454.69;1483664;93;20971;-84
2021/05/12 09:56:56;;;;;;;2.83;2.35;;;;;;;27.44;32.96;95454.69;1485726;92;21062;-84
2021/05/12 09:59:26;;;;;;;3.70;1.85;;;;;;;27.48;32.16;95455.63;1470699;94;20999;-84
2021/05/12 10:02:00;;;;;;;2.62;1.67;;;;;;;27.34;31.37;95433.11;1470850;94;20972;-84
2021/05/12 10:04:38;;;;;;;3.22;2.00;;;;;;;27.36;31.46;95457.59;1465288;94;21038;-84
2021/05/12 10:07:25;;;;;;;2.75;1.50;;;;;;;27.27;31.62;95449.31;1450088;95;20995;-84
2021/05/12 10:09:53;;;;;;;4.83;1.75;;;;;;;27.25;31.29;95441.63;1466295;92;21222;-84
2021/05/12 10:12:21;;;;;;;3.95;1.70;;;;;;;27.32;31.16;95445.95;1462500;92;20979;-83
2021/05/12 10:14:58;;;;;;;2.00;1.40;;;;;;;27.32;31.16;95445.95;1479730;95;21011;-84
2021/05/12 10:17:26;;;;;;;4.03;1.70;;;;;;;27.39;31.11;95443.63;1463778;92;21007;-84
2021/05/12 10:19:52;;;;;;;3.45;1.90;;;;;;;27.39;31.11;95443.63;1490375;92;20982;-84
2021/05/12 10:22:19;;;;;;;2.10;1.87;;;;;;;27.53;30.92;95452.05;1471984;93;21353;-84
2021/05/12 10:24:48;;;;;;;3.45;1.40;;;;;;;27.54;30.58;95454.41;1461701;94;21019;-84
2021/05/12 10:27:17;;;;;;;3.37;1.52;;;;;;;27.58;30.46;95446.55;1440372;95;21321;-84
2021/05/12 10:29:51;;;;;;;3.12;1.92;;;;;;;27.62;29.90;95446.16;1471092;94;21265;-84
2021/05/12 10:32:22;;;;;;;3.20;1.62;;;;;;;27.58;29.80;95438.55;1456631;94;21399;-84
2021/05/12 10:34:49;;;;;;;3.37;1.72;;;;;;;27.57;29.51;95446.32;1479906;92;20971;-84
2021/05/12 10:37:17;;;;;;;5.20;2.35;;;;;;;27.53;29.08;95439.50;1462883;94;21324;-84
2021/05/12 10:39:51;;;;;;;2.52;1.75;;;;;;;27.55;29.62;95443.19;1482419;92;21027;-84
2021/05/12 10:43:19;;;;;;;2.70;1.80;;;;;;;27.52;29.83;95440.59;1461185;95;21043;-84
2021/05/12 10:45:46;;;;;;;3.08;1.60;;;;;;;27.58;30.45;95437.22;1457487;92;21038;-84
2021/05/12 10:48:43;;;;;;;3.12;2.02;;;;;;;27.67;30.37;95437.50;1460036;92;21058;-84
2021/05/12 10:51:33;;;;;;;2.47;1.62;;;;;;;27.71;28.92;95434.98;1450607;94;20983;-84
2021/05/12 10:53:58;;;;;;;4.33;1.80;;;;;;;27.67;30.75;95433.50;1450825;95;21258;-82
2021/05/12 10:56:38;;;;;;;3.10;1.40;;;;;;;27.69;30.22;95440.64;1450958;94;21004;-83
2021/05/12 10:59:12;;;;;;;4.05;1.22;;;;;;;27.74;30.25;95434.36;1468939;94;20960;-84
2021/05/12 11:01:48;;;;;;;2.20;1.57;;;;;;;27.74;30.74;95428.47;1461519;94;21007;-84
2021/05/12 11:04:16;;;;;;;2.37;1.82;;;;;;;27.49;29.95;95419.85;1467207;94;20969;-83
2021/05/12 11:06:48;;;;;;;3.42;1.95;;;;;;;27.07;29.88;95414.69;1460253;94;21246;-83
2021/05/12 11:09:22;;;;;;;3.15;1.85;;;;;;;27.07;29.88;95414.69;1454631;94;21054;-84
2021/05/12 11:11:58;;;;;;;2.70;1.45;;;;;;;26.83;29.39;95410.48;1440823;94;20984;-84
2021/05/12 11:14:31;;;;;;;3.67;1.85;;;;;;;26.79;29.27;95412.75;1466068;94;20931;-84
2021/05/12 11:17:10;;;;;;;4.08;1.77;;;;;;;26.91;29.66;95415.63;1459241;92;20990;-84
2021/05/12 11:19:56;;;;;;;3.40;1.95;;;;;;;26.80;29.08;95409.78;1469455;94;21324;-84
2021/05/12 11:33:30;;;;;;;2.75;1.85;;;;;;;27.28;30.17;95403.67;1459322;93;21023;-84
2021/05/12 11:36:11;;;;;;;3.52;1.98;;;;;;;27.24;29.80;95388.61;1456621;94;20983;-84
2021/05/12 11:38:37;;;;;;;2.87;1.60;;;;;;;27.29;30.32;95391.91;1451110;96;20971;-84
2021/05/12 11:41:23;;;;;;;2.02;1.30;;;;;;;27.29;30.32;95391.91;1464664;94;21039;-84
2021/05/12 11:44:02;;;;;;;2.17;1.67;;;;;;;27.34;29.22;95370.44;1450840;95;21015;-84
2021/05/12 11:46:39;;;;;;;2.47;1.72;;;;;;;27.42;29.91;95379.53;1440691;94;21047;-84
2021/05/12 11:49:07;;;;;;;5.80;1.95;;;;;;;27.49;29.95;95380.62;1453393;95;21296;-83
2021/05/12 11:51:39;;;;;;;5.15;2.12;;;;;;;27.59;29.80;95374.20;1454796;95;20987;-84